Date,TemperatureHighF,TemperatureAvgF,TemperatureLowF,DewpointHighF,DewpointAvgF,DewpointLowF,HumidityHigh,HumidityAvg,HumidityLow,PressureMaxIn,PressureMinIn,WindSpeedMaxMPH,WindSpeedAvgMPH,GustSpeedMaxMPH,PrecipitationSumIn
2013-1-1,33.1,18.2,9.3,14.7,5.8,-1.1,77,59,38,30.50,29.83,2,0,3,0.00
2013-1-2,33.3,22.3,12.9,8.8,2.1,-5.4,56,42,20,30.65,30.29,3,0,5,0.00
2013-1-3,38.7,21.3,6.8,16.3,-2.4,-10.1,55,37,13,30.76,30.24,2,0,4,0.00
2013-1-4,44.6,26.2,14.0,20.4,5.0,-3.3,65,44,17,30.58,30.05,2,0,2,0.00
2013-1-5,42.1,26.2,15.3,18.2,7.2,-3.6,65,47,17,30.64,30.21,3,0,4,0.00
2013-1-6,42.4,25.8,10.0,17.9,2.8,-29.6,61,42,13,30.65,30.02,2,0,2,4.18
2013-1-7,51.4,35.9,24.4,16.9,7.4,-1.8,59,34,13,30.22,29.81,2,0,4,0.00
2013-1-8,51.8,41.4,25.5,20.0,9.9,1.2,65,31,16,30.41,29.80,11,2,17,0.00
2013-1-9,52.5,35.7,23.0,23.7,15.5,7.2,69,48,16,30.55,30.06,2,0,3,0.00
2013-1-10,41.5,29.7,19.2,24.9,17.6,10.1,72,61,47,30.20,29.61,3,0,4,0.01
2013-1-11,41.4,25.8,8.2,24.9,11.3,-6.6,79,58,15,30.23,29.31,8,1,15,0.00
2013-1-12,20.7,9.8,2.5,5.9,-0.1,-4.3,75,64,45,30.49,30.18,2,0,5,0.00
2013-1-13,16.2,7.7,0.7,5.0,-2.4,-7.5,71,62,46,30.62,30.35,3,0,4,0.00
2013-1-14,15.4,7.0,-0.6,4.6,-5.2,-11.7,69,56,31,30.65,30.38,2,0,4,0.00
2013-1-15,33.1,17.6,-2.4,14.3,1.4,-10.8,67,49,29,30.65,30.19,2,0,4,0.00
2013-1-16,50.4,32.4,21.9,23.4,12.9,-3.8,66,46,25,30.59,30.13,2,1,6,0.01
2013-2-3,52.3,41.0,32.0,10.7,1.2,-9.2,28,19,12,30.08,29.80,14,2,21,0.01
2013-2-4,58.1,41.4,26.2,12.4,2.7,-8.9,47,22,11,30.19,29.70,16,2,27,0.00
2013-2-5,60.8,45.1,28.8,20.7,10.1,0.0,49,26,13,30.21,29.71,8,1,12,0.00
2013-2-6,55.4,41.2,30.0,34.8,21.1,8.7,91,51,16,30.22,29.67,7,1,11,0.01
2013-2-7,49.3,34.7,22.8,32.3,17.6,3.5,97,58,15,30.44,30.02,4,0,5,0.00
2013-2-8,51.1,32.1,18.3,14.8,6.1,-1.2,63,38,13,30.29,29.67,3,0,6,0.00
2013-2-9,44.6,29.8,19.9,26.7,17.7,6.8,87,62,30,29.99,29.62,3,0,4,0.00
2013-2-10,39.7,28.2,20.7,20.3,11.2,-6.0,83,55,15,30.33,29.79,4,0,5,0.00
2013-2-11,29.8,22.4,14.5,17.8,11.9,7.5,77,64,48,30.39,30.15,3,0,6,0.00
2013-2-12,43.5,27.0,10.4,15.7,-0.4,-10.6,74,38,12,30.45,29.99,4,0,5,0.00
2013-2-13,47.8,32.1,18.5,7.6,1.8,-6.4,56,30,13,30.29,29.90,13,2,16,0.00
2013-2-14,34.3,26.5,18.3,23.7,16.2,2.2,82,66,25,30.60,30.12,4,0,6,0.00
2013-2-15,42.8,26.8,13.6,21.3,11.3,-4.0,80,58,14,30.65,30.26,8,1,10,4.25
2013-2-16,55.4,42.4,19.2,15.1,4.3,-2.8,74,24,11,30.50,29.94,11,3,21,0.01
2013-2-17,62.4,45.5,30.9,16.4,3.4,-9.3,50,19,12,30.09,29.40,12,2,21,0.00
2013-2-18,45.5,31.1,20.7,22.3,4.5,-10.7,74,38,12,30.39,29.92,12,2,19,0.00
2013-2-19,39.9,27.7,18.7,12.5,6.1,-3.3,56,41,17,30.40,29.91,29,3,29,4.26
2013-2-20,39.4,26.2,18.5,25.4,15.1,8.7,86,65,34,30.07,29.68,2,0,4,0.00
2013-2-21,34.0,23.1,14.4,19.0,14.8,8.5,86,71,50,30.17,29.90,1,0,2,0.02
2013-2-22,37.2,24.6,13.1,21.4,13.2,4.1,80,63,43,30.22,29.97,3,0,7,0.03
2013-2-23,40.6,28.6,13.6,25.4,15.2,4.1,87,57,42,30.15,29.66,4,1,6,0.01
2013-2-24,38.7,27.2,23.7,25.8,22.7,15.9,89,83,74,30.35,29.72,2,0,4,4.32
2013-2-25,37.2,23.0,7.7,20.0,12.4,0.9,78,65,41,30.50,29.99,2,0,4,0.00
2013-2-26,39.6,27.3,14.7,27.2,16.7,8.6,78,65,46,30.36,29.89,6,1,8,0.02
2013-2-27,42.6,25.9,12.2,15.2,6.7,0.5,70,47,19,30.62,30.25,2,0,4,0.00
2013-2-28,46.6,31.7,14.5,16.3,3.9,-2.7,58,33,14,30.61,30.16,9,1,15,0.04
2013-3-1,50.5,36.6,22.5,25.3,16.4,1.8,69,46,22,30.55,30.19,5,0,10,0.00
2013-3-2,60.4,43.3,27.5,32.4,23.0,12.2,74,49,15,30.51,29.96,6,1,11,0.00
2013-3-3,63.3,50.4,37.4,27.6,19.7,7.5,61,34,11,30.06,29.44,11,2,24,0.00
2013-3-4,51.1,31.5,16.3,29.3,21.4,11.0,86,69,26,30.55,29.56,11,1,17,0.00
2013-3-5,44.4,25.3,9.7,19.7,13.0,3.3,81,62,24,30.67,30.16,2,0,3,0.02
2013-3-6,61.5,36.5,19.6,30.2,23.0,14.8,86,62,20,30.40,29.64,3,0,4,0.05
2013-3-7,68.4,44.9,27.9,36.4,23.4,8.2,80,50,11,30.10,29.60,3,1,4,0.00
2013-3-8,49.6,38.8,28.4,33.7,29.5,23.0,86,70,54,30.16,29.71,7,0,31,4.45
2013-3-9,38.8,33.3,30.2,33.1,31.1,28.9,97,92,79,30.14,29.81,4,0,6,0.05
2013-3-10,52.3,34.1,15.8,28.9,15.4,1.7,95,52,16,30.48,29.98,50,1,50,4.60
2013-3-11,54.0,42.6,30.9,30.6,14.5,0.6,95,40,14,30.33,29.80,14,3,21,0.02
2013-3-12,39.2,31.0,25.0,29.7,25.2,21.3,96,80,59,30.55,30.30,2,0,3,0.08
2013-3-13,64.9,43.1,25.2,35.8,24.1,8.0,93,57,11,30.45,29.97,9,1,17,0.03
2013-3-14,74.5,56.3,40.8,29.0,18.9,7.5,56,27,11,30.29,29.82,7,1,11,0.01
2013-3-15,76.8,63.3,48.4,25.7,16.4,8.3,38,17,11,30.12,29.57,11,2,19,0.06
2013-3-16,58.6,47.1,38.1,35.4,31.9,23.9,80,57,26,30.10,29.71,3,1,5,0.00
2013-3-17,58.6,43.2,30.6,33.3,19.8,2.1,82,46,12,29.93,29.39,16,4,24,0.00
2013-3-18,51.3,40.9,30.4,7.7,-1.3,-10.6,32,17,12,30.05,29.78,13,4,21,0.00
2013-3-19,58.5,44.6,26.1,15.5,0.9,-4.3,57,17,12,30.60,29.93,14,4,21,0.00
2013-3-20,52.5,35.2,19.4,23.4,16.4,11.0,74,50,19,30.61,29.77,3,0,5,0.00
2013-3-21,58.8,44.0,34.2,35.5,17.0,-5.6,62,38,12,29.93,29.38,10,2,15,0.01
2013-3-22,47.3,32.6,24.4,29.5,16.7,2.0,96,57,21,30.16,29.69,3,0,7,0.00
2013-3-23,25.9,20.3,15.3,23.7,15.8,8.5,94,83,58,30.53,30.16,2,0,5,0.00
2013-3-24,36.7,23.0,7.3,15.0,9.2,0.3,81,58,23,30.55,30.19,2,0,4,0.05
2013-3-25,41.5,26.2,13.5,16.1,10.5,0.6,81,55,21,30.60,30.24,3,0,6,0.01
2013-3-26,50.2,32.0,16.0,28.8,18.7,7.4,74,59,29,30.52,29.89,2,0,4,0.00
2013-3-27,57.2,40.2,27.7,38.9,30.2,21.6,89,69,41,30.28,29.94,2,0,3,0.65
2013-3-28,69.3,46.6,29.7,37.0,30.6,19.2,96,62,17,30.27,29.81,2,0,4,0.00
2013-3-29,68.2,51.5,35.2,36.4,26.6,15.3,80,46,13,30.23,29.81,7,1,11,0.00
2013-3-30,69.3,51.7,36.1,39.6,28.7,12.1,92,50,13,30.32,29.79,12,2,23,0.00
2013-3-31,77.0,52.4,29.8,40.0,24.7,11.7,92,46,11,30.33,29.60,4,1,7,0.00
2013-4-1,54.5,42.0,29.8,35.6,30.3,23.9,85,64,44,30.35,29.93,4,1,8,0.00
2013-4-2,41.9,37.4,34.0,36.3,34.0,31.3,98,88,74,30.25,30.15,2,0,4,0.19
2013-4-3,67.5,48.4,36.3,43.2,34.3,20.6,99,65,18,30.25,29.81,4,1,10,0.00
2013-4-4,75.2,56.0,36.0,41.5,28.6,14.3,85,42,11,30.29,29.70,4,0,5,0.00
2013-4-5,75.0,60.4,48.0,37.8,24.3,12.5,58,30,11,29.93,29.39,14,2,19,0.00
2013-4-6,68.7,56.8,45.0,32.1,18.3,7.4,47,24,11,29.95,29.60,17,2,29,0.00
2013-4-7,67.6,54.3,39.4,35.8,26.1,7.9,83,40,11,29.92,29.49,15,2,27,0.00
2013-4-8,63.7,46.1,28.6,37.6,30.9,22.5,94,60,21,30.02,29.20,6,1,11,0.00
2013-4-9,28.2,20.5,13.1,25.7,13.8,7.0,90,75,60,30.57,30.02,0,0,0,0.00
2013-4-10,33.6,20.0,5.4,19.7,9.4,-1.0,80,64,40,30.61,30.13,3,0,4,0.00
2013-4-11,59.0,37.9,18.1,37.4,26.7,12.5,88,67,35,30.16,29.63,4,0,5,0.10
2013-4-12,61.2,45.0,33.4,36.1,32.0,16.2,89,63,18,30.08,29.69,6,1,11,0.00
2013-4-13,71.6,49.0,29.5,39.2,27.3,7.9,97,55,11,30.09,29.14,11,1,15,0.02
2013-4-14,55.2,42.8,32.4,40.8,14.2,-4.3,96,37,12,29.98,29.52,11,3,20,5.19
2013-4-15,39.4,29.6,23.2,28.3,22.1,5.6,95,76,24,30.29,29.79,4,0,7,0.00
2013-4-16,38.1,28.7,23.0,28.6,23.8,19.7,93,82,61,30.31,29.94,2,0,4,5.19
2013-4-17,33.3,26.8,20.1,29.7,23.1,15.4,98,86,73,30.45,30.07,0,0,0,0.00
2013-4-18,43.0,28.6,11.3,18.5,12.2,4.7,85,54,24,30.51,30.11,2,0,4,0.09
2013-4-19,59.0,41.1,23.4,27.7,16.3,2.5,67,41,16,30.36,29.80,14,2,22,0.00
2013-4-20,64.0,47.6,31.5,35.8,30.0,24.1,83,53,25,30.08,29.71,4,1,10,0.00
2013-4-21,65.5,50.1,33.6,38.1,23.6,7.4,83,45,11,30.20,29.78,10,1,16,0.00
2013-4-22,58.5,34.3,22.8,42.6,27.9,20.3,93,79,40,30.59,29.81,4,0,8,0.00
2013-4-23,43.0,28.3,19.4,23.4,17.2,7.0,91,67,23,30.57,30.17,2,0,3,0.12
2013-4-24,66.2,39.8,19.4,29.3,17.4,7.4,82,49,11,30.45,29.92,3,0,6,0.02
2013-4-25,74.8,49.1,27.5,31.9,21.3,14.3,68,40,11,30.34,29.60,4,1,6,0.00
2013-4-26,76.6,56.7,39.6,28.4,20.7,8.5,60,29,11,30.22,29.86,4,1,7,5.42
2013-4-27,78.3,61.2,37.9,31.5,20.5,7.8,63,25,11,30.29,29.70,7,1,11,0.00
2013-4-28,77.9,58.6,44.4,32.8,20.2,11.0,43,24,11,30.03,29.58,6,1,12,0.00
2013-4-29,81.9,67.5,46.6,41.5,27.0,14.7,67,27,11,29.86,29.26,7,1,12,0.00
2013-4-30,61.9,52.7,33.6,42.6,35.1,21.3,99,55,23,30.18,29.47,5,1,10,0.15
2013-5-1,34.5,30.5,24.3,34.0,28.6,21.8,99,93,82,30.90,30.18,2,0,3,0.04
2013-5-2,53.2,35.9,17.8,31.8,19.1,5.9,90,58,16,31.03,30.42,3,0,4,0.12
2013-5-3,65.3,47.2,26.4,33.9,25.8,17.7,85,50,16,30.63,29.90,3,0,4,0.00
2013-5-4,65.1,49.5,33.3,36.1,30.2,25.7,83,50,23,30.28,29.93,2,0,5,0.00
2013-5-5,62.1,47.1,33.3,41.5,29.3,21.7,83,53,22,30.35,29.93,6,1,9,0.01
2013-5-6,72.0,54.8,36.5,41.9,34.2,20.8,90,52,15,30.17,29.67,3,0,5,0.00
2013-5-7,75.6,56.3,44.2,48.5,40.8,29.4,94,60,20,29.99,29.59,3,1,7,0.02
2013-5-8,62.1,49.9,42.4,47.6,42.9,37.3,99,79,42,30.13,29.81,7,1,11,15.54
2013-5-9,66.6,50.9,42.6,48.4,43.6,37.0,98,79,36,30.26,29.95,8,1,14,0.08
2013-5-10,73.9,56.6,38.7,45.3,38.4,21.6,99,57,16,30.31,29.92,6,1,10,0.00
2013-5-11,75.2,59.2,41.5,46.3,40.1,34.0,85,52,25,30.49,29.97,4,1,5,0.00
2013-5-12,88.7,68.2,49.5,42.7,33.5,21.2,74,34,11,30.23,29.71,5,1,11,0.00
2013-5-13,93.4,75.1,54.3,45.8,35.3,19.7,57,27,11,30.05,29.62,7,1,10,0.00
2013-5-14,95.0,73.2,56.7,49.7,35.5,21.9,54,28,11,29.92,29.53,13,1,16,0.00
2013-5-15,86.0,66.5,51.3,52.5,42.2,28.8,81,46,16,29.90,29.53,6,1,9,0.00
2013-5-16,84.4,62.6,51.4,53.4,46.9,31.8,85,62,24,29.89,29.49,3,0,5,0.00
2013-5-17,95.9,72.1,50.0,53.5,38.8,14.3,80,38,11,29.86,29.26,4,1,5,0.00
2013-5-25,94.8,81.7,65.3,52.6,37.7,28.1,42,23,11,29.70,29.39,2,1,4,0.00
2013-5-26,90.0,70.8,53.1,53.2,31.6,15.3,64,28,11,29.86,29.44,4,1,9,0.00
2013-5-27,87.4,69.3,50.0,44.3,29.3,15.9,55,26,11,29.83,29.32,9,1,15,0.00
2013-5-28,84.2,64.7,47.8,49.1,40.7,28.6,76,45,14,29.84,29.17,3,0,7,0.00
2013-5-29,72.9,57.1,47.3,50.7,43.0,20.5,99,64,14,29.69,29.32,6,1,14,0.16
2013-5-30,77.5,60.1,46.0,36.8,26.7,10.6,67,34,11,29.83,29.39,10,2,22,0.00
2013-5-31,75.4,61.4,42.8,32.6,17.6,7.8,59,22,11,29.91,29.57,11,3,19,0.00
2013-6-1,83.1,60.1,43.7,43.5,37.8,8.0,77,47,12,30.19,29.78,3,0,5,0.00
2013-6-2,93.7,66.1,41.5,42.1,35.9,22.4,81,40,11,30.23,29.37,4,0,11,0.00
2013-6-3,90.7,71.8,49.8,53.3,33.7,21.5,73,32,11,29.78,29.30,10,2,19,0.00
2013-6-4,79.2,60.8,50.2,55.6,45.6,29.5,95,59,30,30.21,29.46,3,0,6,6.44
2013-6-5,61.7,51.7,46.0,50.4,47.7,45.2,99,87,64,30.26,29.99,2,0,4,0.02
2013-6-6,88.3,63.1,40.8,51.9,43.7,26.5,99,59,13,30.17,29.63,3,0,4,0.00
2013-6-7,89.1,66.4,48.4,51.0,45.8,42.1,85,52,20,30.10,29.44,5,0,11,0.00
2013-6-8,80.8,68.5,55.9,53.5,45.8,33.0,69,45,25,29.97,29.51,8,1,11,0.00
2013-6-9,100.8,71.5,46.9,52.9,42.1,28.9,90,45,11,30.07,29.39,2,0,4,0.00
2013-6-10,98.2,78.4,57.9,59.9,43.8,28.5,61,34,11,29.81,29.37,3,0,7,0.00
2013-6-13,92.1,68.4,56.3,66.0,57.3,52.2,91,70,33,30.06,29.48,2,0,4,0.00
2013-6-14,94.5,73.7,55.6,58.2,46.9,28.3,86,46,11,29.86,29.43,2,0,4,0.00
2013-6-15,84.6,69.5,53.2,53.9,50.3,47.3,84,53,31,30.03,29.61,4,0,5,0.00
2013-6-16,83.8,68.7,54.5,59.7,48.2,34.8,91,53,21,30.02,29.69,8,1,15,0.00
2013-6-17,89.4,67.3,51.3,59.8,50.5,41.7,80,57,24,30.10,29.63,2,0,4,0.00
2013-6-18,92.5,69.3,52.3,57.9,52.3,41.5,96,60,18,30.11,29.45,4,0,4,0.00
2013-6-19,102.7,72.8,51.1,55.0,43.7,14.7,92,45,11,29.92,29.13,2,0,4,0.00
2013-6-20,97.3,74.3,54.7,53.4,34.8,15.6,72,29,11,29.82,29.36,3,0,4,0.00
2013-6-21,93.2,74.2,56.3,60.7,46.7,24.0,75,42,11,29.84,29.39,2,0,5,0.00
2013-6-22,96.4,69.7,30.6,57.7,48.8,3.6,83,52,11,30.10,29.27,4,0,5,6.51
2013-6-23,86.4,67.8,50.4,57.7,49.0,41.1,88,55,27,30.00,29.44,3,0,6,0.00
2013-6-24,94.8,74.4,56.5,55.0,42.3,14.9,79,39,11,29.82,29.29,4,0,8,0.00
2013-6-25,95.9,77.8,59.4,49.1,33.3,15.2,50,23,11,29.83,29.42,8,1,13,0.00
2013-6-26,103.1,78.7,56.8,54.0,43.3,35.0,71,34,11,30.00,29.47,3,0,4,0.00
2013-6-27,105.4,85.4,68.2,58.2,44.3,35.0,65,28,11,30.05,29.60,2,0,4,0.00
2013-6-28,99.3,74.7,58.6,67.5,56.1,48.4,99,56,24,30.19,29.66,4,0,8,0.02
2013-6-29,78.4,63.9,62.2,60.1,55.2,31.4,92,76,18,30.12,29.47,2,1,4,6.73
2013-7-3,140.0,140.0,140.0,99.9,95.9,73.1,89,41,14,29.23,29.06,5,0,9,0.00
2013-7-4,140.0,140.0,140.0,99.9,97.9,82.4,82,47,19,29.15,29.06,5,1,15,0.00
2013-7-5,140.0,123.2,63.7,99.9,89.6,54.4,73,56,33,29.73,28.98,2,0,6,0.05
2013-7-6,93.0,75.5,62.1,58.5,52.8,38.4,87,49,16,29.82,29.49,9,1,17,0.02
2013-7-7,96.6,77.0,62.6,62.3,55.1,48.3,71,49,24,29.90,29.54,4,0,7,0.00
2013-7-8,99.0,78.7,61.7,60.2,51.4,31.9,88,46,11,29.94,29.54,7,1,16,0.00
2013-7-9,101.5,79.5,64.2,59.3,47.7,35.1,72,38,11,30.02,29.61,4,0,7,0.00
2013-7-10,100.8,76.4,58.8,61.4,54.0,36.6,79,49,12,30.11,29.54,2,0,4,0.04
2013-7-11,81.0,65.6,59.9,60.6,57.5,55.6,87,76,44,29.98,29.72,1,0,2,0.00
2013-7-18,78.1,73.8,70.7,57.5,54.8,51.1,60,52,39,29.96,29.81,5,1,10,0.00
2013-7-19,89.4,74.6,63.1,61.2,58.5,53.4,86,60,37,30.03,29.72,2,0,4,0.00
2013-7-20,91.8,71.9,56.7,62.2,56.0,51.5,94,62,27,29.97,29.54,4,0,7,0.00
2013-7-21,93.6,71.9,54.1,63.6,57.0,45.2,95,63,33,29.90,29.46,3,0,4,0.00
2013-7-22,99.1,77.4,57.7,60.2,53.6,43.6,81,48,19,29.86,29.44,2,0,4,0.00
2013-7-23,97.2,74.7,59.0,61.8,52.2,31.3,67,47,23,29.97,29.57,2,0,3,0.00
2013-7-24,84.7,72.0,61.9,64.6,57.1,49.0,85,61,35,30.09,29.72,4,1,9,0.00
2013-7-25,81.0,65.5,57.7,63.0,57.7,54.2,98,77,45,30.15,29.86,4,0,8,0.21
2013-7-26,91.0,69.8,55.9,59.6,54.7,48.6,92,62,31,30.20,29.72,2,0,4,0.00
2013-7-27,81.1,64.9,52.2,61.7,56.1,49.8,96,75,44,30.09,29.73,2,0,4,0.00
2013-7-28,79.9,63.8,59.2,64.8,60.1,58.2,99,89,53,30.00,29.62,2,0,3,0.02
2013-7-29,75.6,63.1,57.4,62.4,58.3,52.8,99,86,49,30.07,29.84,4,0,8,0.00
2013-7-30,94.5,71.3,57.4,59.0,55.4,51.2,91,62,26,30.13,29.70,2,0,4,0.00
2013-7-31,96.3,73.2,56.7,56.9,53.8,44.2,86,56,17,30.26,29.68,2,0,4,0.00
2013-8-1,89.6,69.9,56.7,66.1,58.6,48.1,93,70,32,30.10,29.61,2,0,2,0.00
2013-8-2,97.9,76.0,59.0,61.6,54.5,36.6,89,53,12,29.91,29.46,2,0,3,0.00
2013-8-3,95.5,71.1,60.1,63.9,58.6,51.0,98,69,25,30.18,29.59,4,0,10,0.04
2013-8-4,65.3,62.3,61.3,53.1,53.0,51.6,72,71,62,30.11,29.97,2,0,4,0.00
2013-8-5,62.2,62.2,62.2,53.1,53.1,53.1,72,72,72,29.98,29.98,0,0,1,0.00
2013-8-6,62.2,62.2,62.2,53.1,53.1,53.1,72,72,72,29.98,29.98,0,0,1,0.00
2013-8-7,83.3,66.5,59.7,59.9,55.1,52.2,89,68,39,29.98,29.72,2,0,2,0.07
2013-8-8,79.7,64.9,55.4,60.6,56.4,48.2,99,76,47,30.07,29.79,2,0,3,0.00
2013-8-9,83.5,66.1,53.8,56.6,52.9,47.1,97,66,30,30.14,29.82,4,0,6,0.00
2013-8-10,92.3,67.1,50.2,62.6,51.4,39.6,91,63,16,30.21,29.67,2,0,4,0.04
2013-8-11,90.1,70.6,57.4,57.5,51.8,44.8,84,55,26,30.11,29.71,3,0,5,0.00
2013-8-12,88.2,67.4,53.8,59.4,54.6,46.8,99,68,24,30.22,29.72,3,0,5,0.29
2013-8-13,82.2,66.4,53.2,59.4,52.9,46.8,96,64,32,30.15,29.81,4,1,7,0.02
2013-8-14,85.5,67.2,51.4,57.9,52.4,48.1,97,63,31,30.20,29.74,3,0,4,0.00
2013-8-15,85.5,66.6,50.4,59.4,51.2,45.5,90,61,26,30.11,29.73,2,0,4,0.00
2013-8-16,94.3,72.0,53.2,58.6,52.1,47.6,86,54,22,30.13,29.65,2,0,2,0.00
2013-8-17,98.1,73.4,55.8,60.7,51.3,36.6,91,52,13,30.07,29.52,2,0,3,0.00
2013-8-18,89.6,71.6,56.7,63.0,51.8,40.8,87,52,23,30.01,29.65,4,0,4,0.00
2013-8-19,99.0,75.6,55.0,60.0,50.1,35.0,85,47,11,30.05,29.53,2,0,2,0.00
2013-8-20,99.0,76.7,58.5,59.2,47.4,32.8,75,41,11,29.94,29.49,2,0,2,0.00
2013-8-21,91.9,74.9,62.4,66.1,53.6,46.8,80,51,23,30.01,29.64,3,0,5,0.02
2013-8-22,85.1,69.7,59.4,65.4,58.6,55.2,89,69,45,30.11,29.81,2,0,4,0.00
2013-8-23,87.1,71.5,59.4,62.3,56.7,45.8,92,62,33,30.02,29.63,5,1,10,0.02
2013-8-24,89.4,69.9,55.6,62.3,56.2,51.4,88,64,34,29.98,29.62,8,0,11,0.02
2013-8-25,88.2,72.4,56.8,62.0,55.5,52.1,88,58,31,30.06,29.70,4,0,9,0.02
2013-8-26,90.7,73.0,60.3,66.5,57.6,51.0,93,61,26,30.04,29.69,7,1,14,0.01
2013-8-27,92.1,73.7,57.2,69.4,60.1,54.8,99,68,30,30.07,29.65,2,0,3,0.00
2013-8-28,93.6,74.7,60.3,63.9,57.1,49.9,87,57,30,30.00,29.64,2,0,4,0.00
2013-8-29,94.8,77.0,60.3,65.1,52.3,45.8,80,46,23,30.03,29.69,9,1,13,0.00
2013-8-30,91.2,78.1,63.5,62.7,54.5,46.4,76,45,30,30.05,29.69,4,1,9,0.00
2013-8-31,92.5,73.3,59.7,64.7,53.5,47.4,84,53,24,30.00,29.64,7,1,11,0.00
2013-9-1,81.9,69.5,41.3,62.6,58.4,31.5,89,68,38,30.09,29.80,2,0,4,7.76
2013-9-2,96.1,72.7,57.4,63.7,57.9,53.7,97,64,25,30.05,29.56,2,0,3,0.00
2013-9-3,97.5,77.5,59.9,62.9,55.5,50.1,84,51,23,30.01,29.56,2,0,5,0.00
2013-9-4,92.7,74.4,62.8,66.6,56.9,52.1,82,57,26,30.03,29.74,4,0,8,0.00
2013-9-5,91.4,73.4,59.4,61.9,56.2,50.0,84,58,31,30.12,29.71,2,0,4,0.00
2013-9-6,94.5,77.5,61.2,62.6,53.5,44.8,80,46,24,30.03,29.63,5,0,11,0.00
2013-9-7,94.3,75.1,57.6,62.3,53.6,48.7,85,52,24,30.05,29.56,2,0,5,0.00
2013-9-8,89.6,72.7,56.8,59.7,52.1,47.3,83,51,25,29.96,29.54,4,0,7,0.00
2013-9-9,84.9,67.3,57.2,61.7,56.2,50.0,99,71,36,29.97,29.54,4,0,8,0.26
2013-9-10,66.4,60.2,57.7,62.6,59.3,57.5,99,97,84,30.11,29.96,1,0,4,0.15
2013-9-11,62.4,60.4,59.2,61.8,60.0,58.9,99,99,98,30.12,30.06,1,0,2,2.54
2013-9-12,60.8,58.8,41.3,60.2,58.0,31.5,99,96,38,30.13,29.97,1,0,2,3.08
2013-9-13,73.2,62.4,57.9,67.0,60.5,57.6,99,94,68,30.10,29.68,2,0,2,0.14
2013-9-14,72.3,62.9,56.3,63.0,58.2,54.0,99,86,56,29.95,29.67,5,0,8,0.02
2013-9-15,58.8,56.9,52.9,58.5,56.4,52.3,99,98,97,30.24,29.94,2,0,3,0.63
2013-9-16,76.5,59.9,52.9,62.3,56.5,52.3,99,90,60,30.23,29.77,2,0,2,0.06
2013-9-17,84.2,65.2,49.5,71.1,53.6,42.4,99,71,25,30.02,29.49,2,0,3,0.00
2013-9-18,85.5,68.9,54.5,60.0,48.3,40.3,85,51,32,29.78,29.42,9,1,16,0.00
2013-9-19,68.4,59.6,48.9,52.0,46.9,40.6,91,65,40,30.19,29.69,4,0,5,0.00
2013-9-20,70.0,59.8,45.1,52.3,48.4,44.3,99,69,45,30.22,29.92,2,0,2,0.00
2013-9-21,67.5,67.5,67.5,50.2,50.2,50.2,54,54,54,29.92,29.92,0,0,1,0.00
2013-9-22,67.5,67.5,67.5,50.2,50.2,50.2,54,54,54,29.92,29.92,0,0,1,0.00
2013-9-23,67.5,64.9,49.8,50.2,46.6,29.0,61,52,31,30.03,29.88,2,0,4,0.15
2013-9-24,80.8,57.1,40.8,46.4,41.2,36.1,88,60,22,30.20,29.60,2,0,3,0.00
2013-9-25,83.5,59.0,40.6,55.0,44.5,36.1,90,62,33,29.87,29.10,2,0,4,0.00
2013-9-26,74.3,56.7,43.3,50.9,45.6,39.9,97,70,40,29.83,29.43,2,0,3,0.00
2013-9-27,53.8,47.0,40.3,51.6,46.3,40.0,99,97,90,30.08,29.68,2,0,3,0.25
2013-9-28,70.9,51.7,35.1,41.9,33.6,15.2,99,56,12,30.20,29.82,5,1,8,0.01
2013-9-29,78.3,58.5,39.2,46.6,32.4,14.3,87,47,11,30.14,29.58,4,1,11,0.00
2013-9-30,84.6,64.5,52.2,53.0,38.6,14.5,72,42,11,29.85,29.40,4,0,6,0.01
2013-10-1,77.5,59.7,46.8,48.2,42.1,23.8,85,55,23,30.07,29.64,2,0,4,0.00
2013-10-2,81.0,59.0,42.8,53.4,43.1,36.2,92,62,23,30.01,29.54,2,0,2,0.00
2013-10-3,63.7,51.4,39.6,49.0,44.0,39.0,99,78,44,29.95,29.60,2,0,2,0.04
2013-10-4,47.5,38.1,31.5,47.2,36.6,29.9,99,94,84,30.33,29.78,2,0,4,0.33
2013-10-5,66.2,44.5,29.1,36.7,21.3,4.2,97,52,11,30.39,29.91,4,0,8,0.02
2013-10-6,72.1,51.5,34.9,43.3,30.5,4.2,84,50,18,30.38,29.95,2,0,4,0.00
2013-10-7,75.2,54.4,35.8,46.7,39.3,32.3,92,62,26,30.29,29.68,1,0,2,0.00
2013-10-8,75.2,58.9,47.5,49.0,38.5,23.5,74,50,15,29.89,29.44,2,0,4,0.00
2013-10-9,64.0,52.9,42.8,46.9,42.0,36.5,84,68,44,29.95,29.73,2,0,4,0.00
2013-10-10,59.7,50.6,44.2,50.6,45.6,41.5,98,84,65,29.92,29.45,5,0,12,0.00
2013-10-11,62.8,53.8,45.0,42.8,33.3,21.2,86,48,23,30.08,29.34,6,1,14,0.00
2013-10-12,55.4,46.3,39.7,43.1,40.4,38.3,97,80,60,30.25,30.00,2,0,2,0.00
2013-10-13,60.6,47.5,34.2,46.6,41.2,33.6,99,81,54,30.29,29.81,2,0,3,0.00
2013-10-14,53.2,45.3,38.8,43.4,39.0,33.4,99,80,56,30.26,29.79,4,0,8,0.04
2013-10-15,43.9,39.2,36.1,34.5,29.5,25.1,85,68,54,30.41,30.24,3,0,4,0.04
2013-10-16,53.8,39.6,27.0,36.1,29.2,23.3,92,69,41,30.35,29.92,2,0,3,0.04
2013-10-17,52.9,41.1,32.7,35.1,31.3,24.9,81,69,42,30.26,30.00,2,0,2,0.00
2013-10-18,48.7,37.0,30.4,41.2,31.4,27.4,96,81,54,30.34,30.11,2,0,3,0.09
2013-10-19,67.5,48.3,29.8,30.9,23.2,7.4,91,44,11,30.30,29.75,5,1,11,0.00
2013-10-20,55.8,44.8,31.5,38.2,28.2,9.1,99,62,16,30.30,29.76,8,1,15,0.10
2013-10-21,61.2,44.4,28.4,49.8,27.1,12.3,99,62,15,30.38,29.93,6,1,11,0.02
2013-10-22,63.7,50.6,36.3,37.7,30.9,17.6,82,51,23,30.31,29.96,4,0,10,0.00
2013-10-23,68.5,49.3,36.0,41.4,33.9,26.6,87,60,26,30.33,29.95,2,0,3,0.00
2013-10-24,53.8,41.7,31.3,40.7,36.2,30.0,99,82,58,30.45,30.12,2,0,3,0.00
2013-10-25,68.0,49.7,32.4,48.7,35.5,30.1,99,64,25,30.36,29.88,3,0,5,0.00
2013-10-26,61.9,47.5,34.9,38.8,34.3,29.6,85,63,32,30.50,30.07,2,0,2,0.00
2013-10-27,75.6,52.7,35.1,33.8,24.9,10.1,83,44,11,30.24,29.60,8,1,14,0.00
2013-10-28,45.9,37.2,32.4,35.1,32.6,29.3,99,85,55,30.21,29.88,2,0,4,0.01
2013-10-29,37.8,34.5,32.5,35.3,33.1,32.3,99,95,83,30.18,29.97,1,0,2,0.05
2013-10-30,43.3,35.4,30.0,38.3,32.6,15.3,99,91,32,30.04,29.84,7,0,11,0.12
2013-10-31,57.9,43.7,29.5,33.4,20.1,5.0,85,44,14,29.99,29.68,15,3,22,0.00
2013-11-1,53.8,43.2,32.2,36.4,25.9,5.9,80,53,15,30.35,29.87,7,1,13,0.00
2013-11-2,66.0,43.5,28.0,34.6,24.4,7.9,80,50,12,30.41,29.66,3,0,5,0.00
2013-11-3,67.3,49.4,34.7,29.9,21.0,7.5,68,40,11,29.91,29.30,7,1,10,0.00
2013-11-4,43.9,36.6,28.9,30.2,18.9,5.2,89,52,21,30.13,29.87,4,0,7,0.00
2013-11-5,44.6,33.6,24.4,23.6,10.9,-10.7,75,45,12,30.37,30.00,8,1,13,0.00
2013-11-6,50.9,39.1,24.4,19.2,7.5,-4.7,53,29,14,30.37,30.13,14,2,26,0.00
2013-11-7,53.8,41.3,27.5,30.0,22.8,10.0,71,50,23,30.61,30.11,5,0,8,0.00
2013-11-8,66.7,54.5,33.1,26.3,13.2,1.7,71,26,11,30.11,29.59,11,3,17,0.00
2013-11-9,61.2,48.1,35.1,33.8,27.2,7.1,75,49,13,30.38,29.85,11,1,17,0.00
2013-11-10,67.3,47.3,31.5,33.4,24.0,7.5,84,48,11,30.41,29.92,4,0,11,0.00
2013-11-11,69.8,44.4,32.0,32.7,25.0,7.4,84,53,11,30.83,30.00,3,0,9,0.00
2013-11-12,55.2,39.9,27.7,35.7,30.2,23.5,90,70,45,30.84,30.38,3,0,6,0.00
2013-11-13,69.6,49.5,30.0,29.8,16.4,3.0,81,35,11,30.56,29.83,7,0,14,0.00
2013-11-14,57.7,48.9,36.1,36.8,28.4,8.6,73,48,14,30.17,29.76,7,1,14,0.00
2013-11-15,63.5,47.2,30.9,29.9,20.1,6.7,84,42,11,29.86,29.28,13,3,24,0.00
2013-11-16,59.4,46.2,34.9,33.9,17.4,3.8,75,35,13,29.55,29.13,14,3,19,0.00
2013-11-17,57.2,43.3,31.3,27.3,13.3,1.5,66,33,12,30.24,29.54,8,2,19,0.00
2013-11-18,65.5,41.5,25.0,26.2,15.3,3.5,67,40,11,30.37,29.80,3,1,4,0.00
2013-11-19,60.4,46.5,30.4,31.5,19.3,5.9,55,36,14,30.17,29.57,8,1,10,0.00
2013-11-20,58.5,47.9,29.7,32.3,28.5,21.5,78,48,24,30.25,29.63,4,1,10,0.00
2013-11-21,28.9,18.3,14.4,24.5,11.1,6.1,86,73,61,30.93,30.25,2,0,2,0.00
2013-11-22,37.0,26.2,17.2,21.9,15.7,8.5,82,65,42,30.88,30.54,2,0,2,0.00
2013-11-23,36.1,28.6,23.5,25.0,18.9,8.5,86,68,43,30.85,30.53,2,0,3,0.00
2013-11-24,37.8,29.2,20.8,28.4,22.7,16.1,91,77,57,30.53,30.04,2,0,2,0.02
2013-11-25,42.1,34.8,25.7,28.5,23.8,18.5,85,65,47,30.54,30.12,3,0,5,0.03
2013-11-26,51.6,34.6,24.4,29.9,19.1,10.1,83,59,19,30.62,30.24,2,0,4,0.00
2013-11-27,60.6,39.2,22.6,34.9,19.5,5.1,79,52,13,30.47,29.85,4,0,5,0.01
2013-11-28,45.1,34.5,26.6,29.6,24.3,19.0,85,67,48,30.43,30.14,2,0,3,0.00
2013-11-29,62.2,42.6,28.4,39.0,22.3,8.3,85,56,12,30.33,29.88,4,1,7,0.00
2013-11-30,52.5,40.7,30.7,17.5,10.2,0.6,57,32,12,30.34,30.05,8,1,13,0.00
2013-12-1,56.1,44.0,29.3,26.8,16.7,4.4,70,38,13,30.33,29.76,11,2,20,0.00
2013-12-2,60.1,52.4,45.5,23.8,14.6,7.2,41,23,13,29.83,29.44,7,2,14,0.00
2013-12-3,55.2,37.7,12.4,30.2,15.1,5.6,80,46,17,30.14,29.34,11,3,23,0.02
2013-12-4,16.7,8.7,2.1,5.6,-0.3,-5.7,75,66,52,30.55,30.12,1,0,2,0.00
2013-12-5,6.8,1.1,-6.9,-2.6,-9.2,-14.0,68,59,43,30.66,30.40,2,0,3,0.00
2013-12-6,8.2,0.0,-6.5,-3.6,-9.2,-13.6,67,61,48,30.77,30.55,2,0,3,0.00
2013-12-7,11.3,3.1,-2.9,-1.6,-6.9,-10.5,68,60,48,30.76,30.25,2,0,3,0.00
2013-12-8,16.9,8.9,0.5,3.7,-0.7,-7.9,71,64,53,30.45,30.08,2,0,4,0.00
2013-12-9,25.3,11.5,-2.2,0.6,-6.0,-15.4,71,46,19,30.63,30.26,6,1,8,0.00
2013-12-10,44.8,31.0,18.1,13.4,3.5,-12.1,65,33,15,30.52,29.84,21,3,35,0.02
2013-12-11,28.0,19.8,11.3,19.2,11.1,5.8,83,69,53,30.71,30.44,2,0,4,0.00
2013-12-12,46.8,28.0,14.4,20.1,11.3,0.0,83,54,21,30.66,30.06,2,0,4,0.00
2013-12-13,49.8,33.0,20.7,29.6,13.4,2.8,65,48,17,30.31,29.76,2,0,4,0.00
2013-12-14,46.9,33.0,18.7,30.2,11.0,-2.3,77,47,13,30.58,30.12,4,1,9,0.00
2013-12-15,54.5,45.4,27.5,21.6,8.3,0.6,58,24,13,30.34,29.95,18,4,27,0.00
2013-12-16,62.4,48.8,35.8,13.8,6.5,-0.4,31,18,11,30.34,29.89,9,1,19,0.00
2013-12-17,59.2,46.7,29.3,21.2,10.1,0.5,58,26,11,30.50,29.95,8,2,15,0.00
2013-12-18,69.6,54.6,43.3,16.9,6.8,-1.1,22,14,11,30.02,29.49,4,1,10,0.00
2013-12-19,51.1,35.4,18.1,26.2,18.2,4.5,84,53,15,30.17,29.52,3,1,4,0.00
2013-12-20,26.2,20.3,15.8,18.1,14.9,11.6,86,80,70,30.17,29.87,2,0,2,0.00
2013-12-21,32.5,23.1,14.4,22.6,17.4,10.4,91,80,57,30.15,29.73,3,0,4,0.00
2013-12-22,38.5,25.9,14.0,25.6,12.3,-1.1,90,63,19,30.51,29.98,10,1,14,0.00
2013-12-23,44.2,27.2,18.3,26.4,18.6,12.6,85,71,32,30.56,30.07,3,0,5,0.01
2013-12-24,51.1,40.9,25.2,31.5,12.7,-7.0,57,33,13,30.49,29.86,17,4,27,0.00
2013-12-25,45.1,30.4,23.0,10.4,3.1,-7.4,57,36,12,30.57,30.17,8,1,12,0.00
2013-12-26,55.4,42.4,27.1,14.3,1.9,-8.6,55,21,11,30.47,30.09,13,1,22,0.00
2013-12-27,56.5,37.9,25.9,25.4,15.7,10.3,66,44,18,30.48,30.06,2,0,3,0.00
2013-12-28,57.0,36.3,24.1,27.1,20.0,11.1,75,55,19,30.48,29.74,3,1,6,0.00
2013-12-29,40.5,25.2,12.2,24.8,12.5,-2.3,84,61,16,30.62,29.92,8,1,17,0.00
2013-12-30,49.1,38.7,29.3,13.8,4.2,-3.8,50,25,12,30.31,29.97,9,2,18,0.00
2013-12-31,55.0,39.3,30.2,22.1,14.3,6.5,53,37,14,30.25,29.83,3,0,5,0.00
2014-1-1,43.7,34.3,24.6,32.1,24.2,19.2,83,68,38,30.52,29.92,4,0,8,0.00
2014-1-2,40.6,28.0,16.7,28.1,19.1,12.7,89,70,46,30.58,30.19,2,0,4,0.00